sensor_id;sensor_type;location;lat;lon;timestamp;P1;durP1;ratioP1;P2;durP2;ratioP2
15202;SDS011;7702;51.046;5.184;2022-07-29T00:01:52;2.77;;;1.77;;
15202;SDS011;7702;51.046;5.184;2022-07-29T00:04:18;3.80;;;1.50;;
15202;SDS011;7702;51.046;5.184;2022-07-29T00:06:44;2.57;;;1.67;;
15202;SDS011;7702;51.046;5.184;2022-07-29T00:09:10;4.10;;;1.80;;
15202;SDS011;7702;51.046;5.184;2022-07-29T00:11:36;2.47;;;1.57;;
15202;SDS011;7702;51.046;5.184;2022-07-29T00:14:02;5.70;;;2.10;;
15202;SDS011;7702;51.046;5.184;2022-07-29T00:16:28;3.10;;;1.97;;
15202;SDS011;7702;51.046;5.184;2022-07-29T00:18:53;3.30;;;1.77;;
15202;SDS011;7702;51.046;5.184;2022-07-29T00:21:21;3.10;;;1.90;;
15202;SDS011;7702;51.046;5.184;2022-07-29T00:23:46;3.67;;;1.70;;
15202;SDS011;7702;51.046;5.184;2022-07-29T00:26:12;3.33;;;2.10;;
15202;SDS011;7702;51.046;5.184;2022-07-29T00:28:38;3.07;;;1.83;;
15202;SDS011;7702;51.046;5.184;2022-07-29T00:31:03;5.30;;;2.20;;
15202;SDS011;7702;51.046;5.184;2022-07-29T00:33:29;2.83;;;1.90;;
15202;SDS011;7702;51.046;5.184;2022-07-29T00:35:54;2.17;;;2.00;;
15202;SDS011;7702;51.046;5.184;2022-07-29T00:38:20;4.13;;;1.80;;
15202;SDS011;7702;51.046;5.184;2022-07-29T00:40:46;2.10;;;1.80;;
15202;SDS011;7702;51.046;5.184;2022-07-29T00:43:12;1.70;;;1.53;;
15202;SDS011;7702;51.046;5.184;2022-07-29T00:45:40;2.20;;;1.70;;
15202;SDS011;7702;51.046;5.184;2022-07-29T00:48:06;2.80;;;1.70;;
15202;SDS011;7702;51.046;5.184;2022-07-29T00:50:33;5.03;;;1.70;;
15202;SDS011;7702;51.046;5.184;2022-07-29T00:53:01;2.10;;;1.63;;
15202;SDS011;7702;51.046;5.184;2022-07-29T00:55:28;3.37;;;1.90;;
15202;SDS011;7702;51.046;5.184;2022-07-29T00:57:54;4.50;;;1.80;;
15202;SDS011;7702;51.046;5.184;2022-07-29T01:00:24;2.70;;;2.07;;
15202;SDS011;7702;51.046;5.184;2022-07-29T01:02:50;2.93;;;2.60;;
15202;SDS011;7702;51.046;5.184;2022-07-29T01:05:16;3.97;;;2.23;;
15202;SDS011;7702;51.046;5.184;2022-07-29T01:07:43;2.57;;;2.13;;
15202;SDS011;7702;51.046;5.184;2022-07-29T01:10:11;2.20;;;1.73;;
15202;SDS011;7702;51.046;5.184;2022-07-29T01:12:38;4.00;;;2.37;;
15202;SDS011;7702;51.046;5.184;2022-07-29T01:15:05;5.03;;;2.33;;
15202;SDS011;7702;51.046;5.184;2022-07-29T01:20:41;3.43;;;2.23;;
15202;SDS011;7702;51.046;5.184;2022-07-29T01:23:36;2.57;;;1.80;;
15202;SDS011;7702;51.046;5.184;2022-07-29T01:29:01;4.93;;;2.70;;
15202;SDS011;7702;51.046;5.184;2022-07-29T01:34:05;2.30;;;1.97;;
15202;SDS011;7702;51.046;5.184;2022-07-29T01:36:35;3.33;;;2.23;;
15202;SDS011;7702;51.046;5.184;2022-07-29T01:39:08;4.33;;;2.30;;
15202;SDS011;7702;51.046;5.184;2022-07-29T01:41:38;2.00;;;1.90;;
15202;SDS011;7702;51.046;5.184;2022-07-29T01:44:15;2.07;;;1.97;;
15202;SDS011;7702;51.046;5.184;2022-07-29T01:46:55;1.93;;;1.70;;
15202;SDS011;7702;51.046;5.184;2022-07-29T01:49:25;3.70;;;2.17;;
15202;SDS011;7702;51.046;5.184;2022-07-29T01:51:57;3.23;;;1.77;;
15202;SDS011;7702;51.046;5.184;2022-07-29T01:54:37;6.90;;;2.30;;
15202;SDS011;7702;51.046;5.184;2022-07-29T01:57:10;4.10;;;1.93;;
15202;SDS011;7702;51.046;5.184;2022-07-29T01:59:38;2.20;;;2.07;;
15202;SDS011;7702;51.046;5.184;2022-07-29T02:02:06;2.27;;;2.07;;
15202;SDS011;7702;51.046;5.184;2022-07-29T02:04:35;3.20;;;2.47;;
15202;SDS011;7702;51.046;5.184;2022-07-29T02:07:03;3.10;;;2.20;;
15202;SDS011;7702;51.046;5.184;2022-07-29T02:09:31;4.93;;;1.97;;
15202;SDS011;7702;51.046;5.184;2022-07-29T02:12:00;6.30;;;2.83;;
15202;SDS011;7702;51.046;5.184;2022-07-29T02:14:30;5.00;;;2.50;;
15202;SDS011;7702;51.046;5.184;2022-07-29T02:17:01;5.00;;;3.03;;
15202;SDS011;7702;51.046;5.184;2022-07-29T02:19:27;3.50;;;2.57;;
15202;SDS011;7702;51.046;5.184;2022-07-29T02:21:57;2.30;;;2.10;;
15202;SDS011;7702;51.046;5.184;2022-07-29T02:24:24;3.77;;;2.20;;
15202;SDS011;7702;51.046;5.184;2022-07-29T02:26:52;5.53;;;2.27;;
15202;SDS011;7702;51.046;5.184;2022-07-29T02:29:21;4.33;;;3.13;;
15202;SDS011;7702;51.046;5.184;2022-07-29T02:31:50;4.37;;;2.23;;
15202;SDS011;7702;51.046;5.184;2022-07-29T02:34:17;3.50;;;2.60;;
15202;SDS011;7702;51.046;5.184;2022-07-29T02:36:44;4.80;;;2.23;;
15202;SDS011;7702;51.046;5.184;2022-07-29T02:39:11;2.30;;;2.00;;
15202;SDS011;7702;51.046;5.184;2022-07-29T02:41:40;3.33;;;2.20;;
15202;SDS011;7702;51.046;5.184;2022-07-29T02:44:13;3.93;;;2.40;;
15202;SDS011;7702;51.046;5.184;2022-07-29T02:47:02;2.70;;;2.20;;
15202;SDS011;7702;51.046;5.184;2022-07-29T02:49:40;3.50;;;2.50;;
15202;SDS011;7702;51.046;5.184;2022-07-29T02:52:14;6.17;;;2.70;;
15202;SDS011;7702;51.046;5.184;2022-07-29T02:54:45;2.77;;;2.40;;
15202;SDS011;7702;51.046;5.184;2022-07-29T03:00:04;4.73;;;3.07;;
15202;SDS011;7702;51.046;5.184;2022-07-29T03:02:35;3.33;;;2.47;;
15202;SDS011;7702;51.046;5.184;2022-07-29T03:05:03;4.53;;;2.60;;
15202;SDS011;7702;51.046;5.184;2022-07-29T03:07:31;4.77;;;2.80;;
15202;SDS011;7702;51.046;5.184;2022-07-29T03:09:57;4.83;;;2.83;;
15202;SDS011;7702;51.046;5.184;2022-07-29T03:12:23;3.43;;;3.00;;
15202;SDS011;7702;51.046;5.184;2022-07-29T03:14:50;2.50;;;2.33;;
15202;SDS011;7702;51.046;5.184;2022-07-29T03:17:17;3.57;;;2.83;;
15202;SDS011;7702;51.046;5.184;2022-07-29T03:19:43;2.83;;;2.63;;
15202;SDS011;7702;51.046;5.184;2022-07-29T03:22:09;3.23;;;3.00;;
15202;SDS011;7702;51.046;5.184;2022-07-29T03:24:36;3.97;;;2.70;;
15202;SDS011;7702;51.046;5.184;2022-07-29T03:27:02;3.60;;;2.73;;
15202;SDS011;7702;51.046;5.184;2022-07-29T03:29:29;8.03;;;2.77;;
15202;SDS011;7702;51.046;5.184;2022-07-29T03:31:55;4.97;;;3.00;;
15202;SDS011;7702;51.046;5.184;2022-07-29T03:34:21;3.20;;;2.90;;
15202;SDS011;7702;51.046;5.184;2022-07-29T03:36:47;4.87;;;2.77;;
15202;SDS011;7702;51.046;5.184;2022-07-29T03:39:20;6.67;;;3.00;;
15202;SDS011;7702;51.046;5.184;2022-07-29T03:41:49;3.20;;;2.90;;
15202;SDS011;7702;51.046;5.184;2022-07-29T03:44:18;5.87;;;2.97;;
15202;SDS011;7702;51.046;5.184;2022-07-29T03:46:45;3.00;;;2.77;;
15202;SDS011;7702;51.046;5.184;2022-07-29T03:49:14;3.43;;;3.13;;
15202;SDS011;7702;51.046;5.184;2022-07-29T03:51:41;3.63;;;3.23;;
15202;SDS011;7702;51.046;5.184;2022-07-29T03:54:08;7.27;;;3.53;;
15202;SDS011;7702;51.046;5.184;2022-07-29T03:56:34;5.70;;;3.43;;
15202;SDS011;7702;51.046;5.184;2022-07-29T03:59:02;4.90;;;3.50;;
15202;SDS011;7702;51.046;5.184;2022-07-29T04:01:29;5.33;;;3.40;;
15202;SDS011;7702;51.046;5.184;2022-07-29T04:03:57;6.03;;;3.37;;
15202;SDS011;7702;51.046;5.184;2022-07-29T04:06:23;8.03;;;3.90;;
15202;SDS011;7702;51.046;5.184;2022-07-29T04:08:50;3.87;;;3.40;;
15202;SDS011;7702;51.046;5.184;2022-07-29T04:11:16;4.17;;;3.50;;
15202;SDS011;7702;51.046;5.184;2022-07-29T04:13:42;4.53;;;3.60;;
15202;SDS011;7702;51.046;5.184;2022-07-29T04:16:08;8.70;;;4.00;;
15202;SDS011;7702;51.046;5.184;2022-07-29T04:18:33;4.97;;;3.23;;
15202;SDS011;7702;51.046;5.184;2022-07-29T04:21:00;8.47;;;3.47;;
15202;SDS011;7702;51.046;5.184;2022-07-29T04:23:26;5.30;;;3.63;;
15202;SDS011;7702;51.046;5.184;2022-07-29T04:25:54;6.03;;;3.60;;
15202;SDS011;7702;51.046;5.184;2022-07-29T04:28:19;4.07;;;3.70;;
15202;SDS011;7702;51.046;5.184;2022-07-29T04:30:45;5.30;;;4.10;;
15202;SDS011;7702;51.046;5.184;2022-07-29T04:33:11;4.20;;;3.80;;
15202;SDS011;7702;51.046;5.184;2022-07-29T04:35:37;6.77;;;3.83;;
15202;SDS011;7702;51.046;5.184;2022-07-29T04:38:03;4.40;;;3.73;;
15202;SDS011;7702;51.046;5.184;2022-07-29T04:40:30;4.87;;;3.73;;
15202;SDS011;7702;51.046;5.184;2022-07-29T04:42:58;4.43;;;3.60;;
15202;SDS011;7702;51.046;5.184;2022-07-29T04:45:24;6.43;;;3.63;;
15202;SDS011;7702;51.046;5.184;2022-07-29T04:47:50;5.40;;;4.10;;
15202;SDS011;7702;51.046;5.184;2022-07-29T04:50:15;4.80;;;3.90;;
15202;SDS011;7702;51.046;5.184;2022-07-29T04:52:41;4.80;;;4.10;;
15202;SDS011;7702;51.046;5.184;2022-07-29T04:55:08;6.20;;;4.13;;
15202;SDS011;7702;51.046;5.184;2022-07-29T04:57:34;6.13;;;4.40;;
15202;SDS011;7702;51.046;5.184;2022-07-29T05:00:00;6.60;;;4.13;;
15202;SDS011;7702;51.046;5.184;2022-07-29T05:02:26;4.40;;;3.53;;
15202;SDS011;7702;51.046;5.184;2022-07-29T05:04:52;7.17;;;4.03;;
15202;SDS011;7702;51.046;5.184;2022-07-29T05:07:17;6.27;;;4.40;;
15202;SDS011;7702;51.046;5.184;2022-07-29T05:09:43;5.33;;;3.87;;
15202;SDS011;7702;51.046;5.184;2022-07-29T05:12:09;8.63;;;4.27;;
15202;SDS011;7702;51.046;5.184;2022-07-29T05:14:34;5.67;;;4.50;;
15202;SDS011;7702;51.046;5.184;2022-07-29T05:17:00;4.57;;;4.10;;
15202;SDS011;7702;51.046;5.184;2022-07-29T05:19:26;5.00;;;3.80;;
15202;SDS011;7702;51.046;5.184;2022-07-29T05:21:51;6.20;;;4.30;;
15202;SDS011;7702;51.046;5.184;2022-07-29T05:24:17;4.67;;;4.30;;
15202;SDS011;7702;51.046;5.184;2022-07-29T05:26:43;6.63;;;4.37;;
15202;SDS011;7702;51.046;5.184;2022-07-29T05:29:08;5.03;;;4.40;;
15202;SDS011;7702;51.046;5.184;2022-07-29T05:31:34;5.40;;;3.87;;
15202;SDS011;7702;51.046;5.184;2022-07-29T05:34:00;8.13;;;4.57;;
15202;SDS011;7702;51.046;5.184;2022-07-29T05:36:26;6.47;;;3.97;;
15202;SDS011;7702;51.046;5.184;2022-07-29T05:38:51;6.07;;;3.63;;
15202;SDS011;7702;51.046;5.184;2022-07-29T05:41:21;4.43;;;4.03;;
15202;SDS011;7702;51.046;5.184;2022-07-29T05:43:46;5.03;;;4.37;;
15202;SDS011;7702;51.046;5.184;2022-07-29T05:46:12;4.23;;;3.83;;
15202;SDS011;7702;51.046;5.184;2022-07-29T05:48:39;6.53;;;4.40;;
15202;SDS011;7702;51.046;5.184;2022-07-29T05:51:04;6.40;;;4.10;;
15202;SDS011;7702;51.046;5.184;2022-07-29T05:53:30;4.13;;;3.83;;
15202;SDS011;7702;51.046;5.184;2022-07-29T05:55:56;7.77;;;4.67;;
15202;SDS011;7702;51.046;5.184;2022-07-29T05:58:21;4.47;;;3.77;;
15202;SDS011;7702;51.046;5.184;2022-07-29T06:00:47;5.57;;;4.27;;
15202;SDS011;7702;51.046;5.184;2022-07-29T06:03:13;3.30;;;2.97;;
15202;SDS011;7702;51.046;5.184;2022-07-29T06:05:38;5.17;;;3.87;;
15202;SDS011;7702;51.046;5.184;2022-07-29T06:08:04;3.97;;;3.53;;
15202;SDS011;7702;51.046;5.184;2022-07-29T06:10:36;8.00;;;3.97;;
15202;SDS011;7702;51.046;5.184;2022-07-29T06:13:03;4.03;;;3.53;;
15202;SDS011;7702;51.046;5.184;2022-07-29T06:15:28;7.30;;;4.17;;
15202;SDS011;7702;51.046;5.184;2022-07-29T06:17:54;4.47;;;4.07;;
15202;SDS011;7702;51.046;5.184;2022-07-29T06:20:20;6.17;;;4.27;;
15202;SDS011;7702;51.046;5.184;2022-07-29T06:22:45;4.77;;;3.60;;
15202;SDS011;7702;51.046;5.184;2022-07-29T06:25:11;4.83;;;4.00;;
15202;SDS011;7702;51.046;5.184;2022-07-29T06:27:37;3.93;;;3.40;;
15202;SDS011;7702;51.046;5.184;2022-07-29T06:30:02;6.37;;;3.50;;
15202;SDS011;7702;51.046;5.184;2022-07-29T06:32:31;3.43;;;3.13;;
15202;SDS011;7702;51.046;5.184;2022-07-29T06:34:57;4.67;;;3.40;;
15202;SDS011;7702;51.046;5.184;2022-07-29T06:37:23;3.60;;;2.93;;
15202;SDS011;7702;51.046;5.184;2022-07-29T06:39:48;5.13;;;3.60;;
15202;SDS011;7702;51.046;5.184;2022-07-29T06:42:34;3.57;;;3.33;;
15202;SDS011;7702;51.046;5.184;2022-07-29T06:44:59;3.57;;;2.83;;
15202;SDS011;7702;51.046;5.184;2022-07-29T06:47:25;3.93;;;3.53;;
15202;SDS011;7702;51.046;5.184;2022-07-29T06:49:51;5.57;;;3.73;;
15202;SDS011;7702;51.046;5.184;2022-07-29T06:52:16;5.37;;;3.30;;
15202;SDS011;7702;51.046;5.184;2022-07-29T06:54:42;3.80;;;3.40;;
15202;SDS011;7702;51.046;5.184;2022-07-29T06:57:12;5.67;;;3.67;;
15202;SDS011;7702;51.046;5.184;2022-07-29T06:59:38;4.50;;;3.73;;
15202;SDS011;7702;51.046;5.184;2022-07-29T07:02:04;4.70;;;3.47;;
15202;SDS011;7702;51.046;5.184;2022-07-29T07:04:30;4.30;;;3.20;;
15202;SDS011;7702;51.046;5.184;2022-07-29T07:06:55;6.20;;;3.80;;
15202;SDS011;7702;51.046;5.184;2022-07-29T07:09:21;5.97;;;3.07;;
15202;SDS011;7702;51.046;5.184;2022-07-29T07:11:47;7.43;;;4.07;;
15202;SDS011;7702;51.046;5.184;2022-07-29T07:14:12;4.53;;;4.13;;
15202;SDS011;7702;51.046;5.184;2022-07-29T07:16:38;4.23;;;3.83;;
15202;SDS011;7702;51.046;5.184;2022-07-29T07:19:04;6.13;;;3.50;;
15202;SDS011;7702;51.046;5.184;2022-07-29T07:21:30;4.33;;;3.93;;
15202;SDS011;7702;51.046;5.184;2022-07-29T07:23:57;8.03;;;3.40;;
15202;SDS011;7702;51.046;5.184;2022-07-29T07:26:24;5.37;;;3.60;;
15202;SDS011;7702;51.046;5.184;2022-07-29T07:28:50;5.00;;;3.77;;
15202;SDS011;7702;51.046;5.184;2022-07-29T07:31:17;6.43;;;3.50;;
15202;SDS011;7702;51.046;5.184;2022-07-29T07:33:42;4.03;;;3.67;;
15202;SDS011;7702;51.046;5.184;2022-07-29T07:36:08;3.70;;;3.30;;
15202;SDS011;7702;51.046;5.184;2022-07-29T07:38:34;4.43;;;3.93;;
15202;SDS011;7702;51.046;5.184;2022-07-29T07:41:00;3.60;;;3.30;;
15202;SDS011;7702;51.046;5.184;2022-07-29T07:43:26;6.03;;;3.03;;
15202;SDS011;7702;51.046;5.184;2022-07-29T07:45:52;4.50;;;3.73;;
15202;SDS011;7702;51.046;5.184;2022-07-29T07:48:18;3.67;;;3.37;;
15202;SDS011;7702;51.046;5.184;2022-07-29T07:50:43;4.20;;;3.80;;
15202;SDS011;7702;51.046;5.184;2022-07-29T07:53:09;4.93;;;3.93;;
15202;SDS011;7702;51.046;5.184;2022-07-29T07:55:41;3.93;;;3.33;;
15202;SDS011;7702;51.046;5.184;2022-07-29T07:58:08;6.10;;;3.73;;
15202;SDS011;7702;51.046;5.184;2022-07-29T08:00:34;3.93;;;3.53;;
15202;SDS011;7702;51.046;5.184;2022-07-29T08:03:00;4.33;;;3.93;;
15202;SDS011;7702;51.046;5.184;2022-07-29T08:05:25;4.87;;;3.37;;
15202;SDS011;7702;51.046;5.184;2022-07-29T08:07:51;7.07;;;3.60;;
15202;SDS011;7702;51.046;5.184;2022-07-29T08:10:18;5.00;;;4.03;;
15202;SDS011;7702;51.046;5.184;2022-07-29T08:13:04;8.43;;;4.07;;
15202;SDS011;7702;51.046;5.184;2022-07-29T08:15:32;6.93;;;3.37;;
15202;SDS011;7702;51.046;5.184;2022-07-29T08:17:57;4.70;;;3.50;;
15202;SDS011;7702;51.046;5.184;2022-07-29T08:20:23;6.60;;;3.40;;
15202;SDS011;7702;51.046;5.184;2022-07-29T08:22:49;4.13;;;3.30;;
15202;SDS011;7702;51.046;5.184;2022-07-29T08:25:15;6.80;;;3.50;;
15202;SDS011;7702;51.046;5.184;2022-07-29T08:27:42;5.90;;;3.37;;
15202;SDS011;7702;51.046;5.184;2022-07-29T08:30:08;5.93;;;3.33;;
15202;SDS011;7702;51.046;5.184;2022-07-29T08:32:35;5.40;;;3.60;;
15202;SDS011;7702;51.046;5.184;2022-07-29T08:35:01;7.03;;;3.43;;
15202;SDS011;7702;51.046;5.184;2022-07-29T08:37:26;4.70;;;3.10;;
15202;SDS011;7702;51.046;5.184;2022-07-29T08:39:52;3.60;;;3.20;;
15202;SDS011;7702;51.046;5.184;2022-07-29T08:42:18;4.83;;;3.37;;
15202;SDS011;7702;51.046;5.184;2022-07-29T08:44:43;6.87;;;3.73;;
15202;SDS011;7702;51.046;5.184;2022-07-29T08:47:09;4.23;;;3.40;;
15202;SDS011;7702;51.046;5.184;2022-07-29T08:49:38;4.43;;;3.20;;
15202;SDS011;7702;51.046;5.184;2022-07-29T08:52:05;4.30;;;3.90;;
15202;SDS011;7702;51.046;5.184;2022-07-29T08:54:32;3.87;;;3.43;;
15202;SDS011;7702;51.046;5.184;2022-07-29T08:56:58;6.27;;;3.30;;
15202;SDS011;7702;51.046;5.184;2022-07-29T08:59:26;3.10;;;2.87;;
15202;SDS011;7702;51.046;5.184;2022-07-29T09:01:53;3.80;;;3.50;;
15202;SDS011;7702;51.046;5.184;2022-07-29T09:04:22;4.77;;;3.10;;
15202;SDS011;7702;51.046;5.184;2022-07-29T09:06:52;4.23;;;2.73;;
15202;SDS011;7702;51.046;5.184;2022-07-29T09:09:21;6.03;;;3.53;;
15202;SDS011;7702;51.046;5.184;2022-07-29T09:11:47;3.67;;;3.40;;
15202;SDS011;7702;51.046;5.184;2022-07-29T09:14:13;4.40;;;3.20;;
15202;SDS011;7702;51.046;5.184;2022-07-29T09:21:52;3.07;;;2.77;;
15202;SDS011;7702;51.046;5.184;2022-07-29T09:24:35;2.97;;;2.60;;
15202;SDS011;7702;51.046;5.184;2022-07-29T09:27:02;4.57;;;3.60;;
15202;SDS011;7702;51.046;5.184;2022-07-29T09:29:32;4.53;;;3.47;;
15202;SDS011;7702;51.046;5.184;2022-07-29T09:31:59;3.50;;;3.20;;
15202;SDS011;7702;51.046;5.184;2022-07-29T09:34:26;2.90;;;2.70;;
15202;SDS011;7702;51.046;5.184;2022-07-29T09:36:54;3.50;;;2.77;;
15202;SDS011;7702;51.046;5.184;2022-07-29T09:39:28;3.30;;;3.00;;
15202;SDS011;7702;51.046;5.184;2022-07-29T09:42:04;3.30;;;2.50;;
15202;SDS011;7702;51.046;5.184;2022-07-29T09:44:44;4.93;;;2.10;;
15202;SDS011;7702;51.046;5.184;2022-07-29T09:47:13;3.50;;;2.50;;
15202;SDS011;7702;51.046;5.184;2022-07-29T09:52:32;3.40;;;2.23;;
15202;SDS011;7702;51.046;5.184;2022-07-29T09:55:13;2.60;;;2.40;;
15202;SDS011;7702;51.046;5.184;2022-07-29T09:57:39;6.73;;;2.77;;
15202;SDS011;7702;51.046;5.184;2022-07-29T10:02:37;2.50;;;2.30;;
15202;SDS011;7702;51.046;5.184;2022-07-29T10:05:06;2.87;;;2.10;;
15202;SDS011;7702;51.046;5.184;2022-07-29T10:07:53;3.97;;;2.60;;
15202;SDS011;7702;51.046;5.184;2022-07-29T10:13:03;3.70;;;2.47;;
15202;SDS011;7702;51.046;5.184;2022-07-29T10:15:31;3.03;;;2.50;;
15202;SDS011;7702;51.046;5.184;2022-07-29T10:18:06;4.20;;;2.83;;
15202;SDS011;7702;51.046;5.184;2022-07-29T10:20:33;2.97;;;2.20;;
15202;SDS011;7702;51.046;5.184;2022-07-29T10:23:00;3.00;;;2.17;;
15202;SDS011;7702;51.046;5.184;2022-07-29T10:25:25;5.33;;;2.00;;
15202;SDS011;7702;51.046;5.184;2022-07-29T10:27:52;2.27;;;1.47;;
15202;SDS011;7702;51.046;5.184;2022-07-29T10:30:19;1.57;;;1.47;;
15202;SDS011;7702;51.046;5.184;2022-07-29T10:32:51;2.93;;;1.73;;
15202;SDS011;7702;51.046;5.184;2022-07-29T10:38:17;2.00;;;1.87;;
15202;SDS011;7702;51.046;5.184;2022-07-29T10:43:51;2.23;;;2.13;;
15202;SDS011;7702;51.046;5.184;2022-07-29T10:46:24;2.43;;;1.87;;
15202;SDS011;7702;51.046;5.184;2022-07-29T10:57:11;2.47;;;2.20;;
15202;SDS011;7702;51.046;5.184;2022-07-29T10:59:38;2.17;;;1.90;;
15202;SDS011;7702;51.046;5.184;2022-07-29T11:05:04;2.67;;;2.37;;
15202;SDS011;7702;51.046;5.184;2022-07-29T11:07:31;4.30;;;2.23;;
15202;SDS011;7702;51.046;5.184;2022-07-29T11:12:54;3.27;;;2.30;;
15202;SDS011;7702;51.046;5.184;2022-07-29T11:15:20;2.17;;;1.90;;
15202;SDS011;7702;51.046;5.184;2022-07-29T11:20:32;1.90;;;1.77;;
15202;SDS011;7702;51.046;5.184;2022-07-29T11:23:23;3.00;;;1.90;;
15202;SDS011;7702;51.046;5.184;2022-07-29T11:28:52;5.47;;;2.30;;
15202;SDS011;7702;51.046;5.184;2022-07-29T11:34:15;3.03;;;1.87;;
15202;SDS011;7702;51.046;5.184;2022-07-29T11:47:46;2.30;;;2.10;;
15202;SDS011;7702;51.046;5.184;2022-07-29T11:50:14;1.90;;;1.70;;
15202;SDS011;7702;51.046;5.184;2022-07-29T11:52:47;3.23;;;2.30;;
15202;SDS011;7702;51.046;5.184;2022-07-29T11:55:16;2.13;;;1.80;;
15202;SDS011;7702;51.046;5.184;2022-07-29T11:57:50;3.07;;;1.80;;
15202;SDS011;7702;51.046;5.184;2022-07-29T12:01:00;2.70;;;1.83;;
15202;SDS011;7702;51.046;5.184;2022-07-29T12:03:08;3.47;;;1.80;;
15202;SDS011;7702;51.046;5.184;2022-07-29T12:05:42;3.43;;;1.60;;
15202;SDS011;7702;51.046;5.184;2022-07-29T12:08:16;3.17;;;1.73;;
15202;SDS011;7702;51.046;5.184;2022-07-29T12:10:48;2.00;;;1.47;;
15202;SDS011;7702;51.046;5.184;2022-07-29T12:13:15;1.80;;;1.60;;
15202;SDS011;7702;51.046;5.184;2022-07-29T12:15:42;3.87;;;2.30;;
15202;SDS011;7702;51.046;5.184;2022-07-29T12:18:18;2.17;;;1.40;;
15202;SDS011;7702;51.046;5.184;2022-07-29T12:20:45;2.37;;;2.17;;
15202;SDS011;7702;51.046;5.184;2022-07-29T12:23:11;2.07;;;1.80;;
15202;SDS011;7702;51.046;5.184;2022-07-29T12:25:38;2.07;;;1.80;;
15202;SDS011;7702;51.046;5.184;2022-07-29T12:28:07;3.77;;;1.80;;
15202;SDS011;7702;51.046;5.184;2022-07-29T12:30:35;2.50;;;1.90;;
15202;SDS011;7702;51.046;5.184;2022-07-29T12:33:10;1.93;;;1.83;;
15202;SDS011;7702;51.046;5.184;2022-07-29T12:35:47;2.60;;;1.80;;
15202;SDS011;7702;51.046;5.184;2022-07-29T12:38:21;5.27;;;2.20;;
15202;SDS011;7702;51.046;5.184;2022-07-29T12:40:47;3.80;;;1.90;;
15202;SDS011;7702;51.046;5.184;2022-07-29T12:43:20;1.90;;;1.80;;
15202;SDS011;7702;51.046;5.184;2022-07-29T12:45:48;1.90;;;1.80;;
15202;SDS011;7702;51.046;5.184;2022-07-29T12:48:16;3.37;;;2.33;;
15202;SDS011;7702;51.046;5.184;2022-07-29T12:50:58;4.40;;;1.97;;
15202;SDS011;7702;51.046;5.184;2022-07-29T12:53:26;1.90;;;1.80;;
15202;SDS011;7702;51.046;5.184;2022-07-29T12:55:52;2.23;;;1.90;;
15202;SDS011;7702;51.046;5.184;2022-07-29T13:01:05;2.80;;;1.53;;
15202;SDS011;7702;51.046;5.184;2022-07-29T13:03:48;2.50;;;1.70;;
15202;SDS011;7702;51.046;5.184;2022-07-29T13:06:29;2.00;;;1.47;;
15202;SDS011;7702;51.046;5.184;2022-07-29T13:11:35;2.23;;;2.03;;
15202;SDS011;7702;51.046;5.184;2022-07-29T13:14:10;3.70;;;2.20;;
15202;SDS011;7702;51.046;5.184;2022-07-29T13:16:37;3.67;;;1.93;;
15202;SDS011;7702;51.046;5.184;2022-07-29T13:19:39;2.03;;;1.93;;
15202;SDS011;7702;51.046;5.184;2022-07-29T13:22:10;2.97;;;1.80;;
15202;SDS011;7702;51.046;5.184;2022-07-29T13:24:45;2.90;;;2.07;;
15202;SDS011;7702;51.046;5.184;2022-07-29T13:27:15;3.23;;;1.93;;
15202;SDS011;7702;51.046;5.184;2022-07-29T13:29:42;2.37;;;1.80;;
15202;SDS011;7702;51.046;5.184;2022-07-29T13:32:08;2.20;;;1.97;;
15202;SDS011;7702;51.046;5.184;2022-07-29T13:34:33;4.00;;;2.03;;
15202;SDS011;7702;51.046;5.184;2022-07-29T13:36:59;2.07;;;1.83;;
15202;SDS011;7702;51.046;5.184;2022-07-29T13:39:25;2.70;;;2.00;;
15202;SDS011;7702;51.046;5.184;2022-07-29T13:41:51;2.50;;;1.90;;
15202;SDS011;7702;51.046;5.184;2022-07-29T13:44:17;2.30;;;1.93;;
15202;SDS011;7702;51.046;5.184;2022-07-29T13:46:43;2.10;;;1.57;;
15202;SDS011;7702;51.046;5.184;2022-07-29T13:49:08;3.67;;;1.90;;
15202;SDS011;7702;51.046;5.184;2022-07-29T13:51:35;1.67;;;1.57;;
15202;SDS011;7702;51.046;5.184;2022-07-29T13:54:02;2.53;;;1.77;;
15202;SDS011;7702;51.046;5.184;2022-07-29T13:56:27;3.03;;;1.80;;
15202;SDS011;7702;51.046;5.184;2022-07-29T13:58:53;9.90;;;2.77;;
15202;SDS011;7702;51.046;5.184;2022-07-29T14:01:19;2.10;;;1.90;;
15202;SDS011;7702;51.046;5.184;2022-07-29T14:03:44;3.10;;;2.80;;
15202;SDS011;7702;51.046;5.184;2022-07-29T14:06:10;2.10;;;1.90;;
15202;SDS011;7702;51.046;5.184;2022-07-29T14:08:36;1.60;;;1.50;;
15202;SDS011;7702;51.046;5.184;2022-07-29T14:11:02;2.03;;;1.83;;
15202;SDS011;7702;51.046;5.184;2022-07-29T14:13:28;4.47;;;2.17;;
15202;SDS011;7702;51.046;5.184;2022-07-29T14:15:53;2.37;;;1.77;;
15202;SDS011;7702;51.046;5.184;2022-07-29T14:18:19;2.90;;;2.00;;
15202;SDS011;7702;51.046;5.184;2022-07-29T14:20:45;3.50;;;1.93;;
15202;SDS011;7702;51.046;5.184;2022-07-29T14:23:11;4.23;;;2.27;;
15202;SDS011;7702;51.046;5.184;2022-07-29T14:25:36;2.83;;;2.17;;
15202;SDS011;7702;51.046;5.184;2022-07-29T14:28:02;2.50;;;1.87;;
15202;SDS011;7702;51.046;5.184;2022-07-29T14:30:28;5.97;;;2.10;;
15202;SDS011;7702;51.046;5.184;2022-07-29T14:32:53;2.60;;;1.70;;
15202;SDS011;7702;51.046;5.184;2022-07-29T14:35:19;4.20;;;1.90;;
15202;SDS011;7702;51.046;5.184;2022-07-29T14:37:45;2.10;;;2.00;;
15202;SDS011;7702;51.046;5.184;2022-07-29T14:40:10;2.93;;;1.77;;
15202;SDS011;7702;51.046;5.184;2022-07-29T14:42:37;2.17;;;1.70;;
15202;SDS011;7702;51.046;5.184;2022-07-29T14:45:04;2.13;;;1.70;;
15202;SDS011;7702;51.046;5.184;2022-07-29T14:47:31;2.97;;;1.90;;
15202;SDS011;7702;51.046;5.184;2022-07-29T14:49:56;3.50;;;1.90;;
15202;SDS011;7702;51.046;5.184;2022-07-29T14:52:22;2.77;;;1.90;;
15202;SDS011;7702;51.046;5.184;2022-07-29T14:54:48;3.87;;;2.03;;
15202;SDS011;7702;51.046;5.184;2022-07-29T14:57:14;3.50;;;2.43;;
15202;SDS011;7702;51.046;5.184;2022-07-29T14:59:39;2.20;;;2.00;;
15202;SDS011;7702;51.046;5.184;2022-07-29T15:02:05;4.70;;;2.30;;
15202;SDS011;7702;51.046;5.184;2022-07-29T15:04:31;3.03;;;1.97;;
15202;SDS011;7702;51.046;5.184;2022-07-29T15:06:57;3.37;;;2.10;;
15202;SDS011;7702;51.046;5.184;2022-07-29T15:09:23;3.77;;;2.00;;
15202;SDS011;7702;51.046;5.184;2022-07-29T15:11:48;3.27;;;1.80;;
15202;SDS011;7702;51.046;5.184;2022-07-29T15:14:14;2.10;;;1.70;;
15202;SDS011;7702;51.046;5.184;2022-07-29T15:16:40;5.77;;;1.90;;
15202;SDS011;7702;51.046;5.184;2022-07-29T15:19:07;4.60;;;2.20;;
15202;SDS011;7702;51.046;5.184;2022-07-29T15:21:33;4.90;;;2.13;;
15202;SDS011;7702;51.046;5.184;2022-07-29T15:23:58;4.07;;;1.83;;
15202;SDS011;7702;51.046;5.184;2022-07-29T15:26:24;4.17;;;2.40;;
15202;SDS011;7702;51.046;5.184;2022-07-29T15:28:50;5.40;;;2.63;;
15202;SDS011;7702;51.046;5.184;2022-07-29T15:31:16;4.73;;;2.00;;
15202;SDS011;7702;51.046;5.184;2022-07-29T15:33:43;3.00;;;2.00;;
15202;SDS011;7702;51.046;5.184;2022-07-29T15:36:09;5.87;;;1.87;;
15202;SDS011;7702;51.046;5.184;2022-07-29T15:38:37;3.00;;;1.90;;
15202;SDS011;7702;51.046;5.184;2022-07-29T15:41:05;2.33;;;1.70;;
15202;SDS011;7702;51.046;5.184;2022-07-29T15:43:31;4.23;;;1.80;;
15202;SDS011;7702;51.046;5.184;2022-07-29T15:45:57;1.83;;;1.73;;
15202;SDS011;7702;51.046;5.184;2022-07-29T15:48:41;4.37;;;2.00;;
15202;SDS011;7702;51.046;5.184;2022-07-29T15:51:07;3.50;;;2.07;;
15202;SDS011;7702;51.046;5.184;2022-07-29T15:53:32;2.33;;;2.10;;
15202;SDS011;7702;51.046;5.184;2022-07-29T15:55:58;2.33;;;1.77;;
15202;SDS011;7702;51.046;5.184;2022-07-29T15:58:24;3.37;;;2.00;;
15202;SDS011;7702;51.046;5.184;2022-07-29T16:00:49;2.23;;;1.50;;
15202;SDS011;7702;51.046;5.184;2022-07-29T16:03:15;2.60;;;1.80;;
15202;SDS011;7702;51.046;5.184;2022-07-29T16:05:41;2.10;;;1.87;;
15202;SDS011;7702;51.046;5.184;2022-07-29T16:08:06;3.13;;;2.03;;
15202;SDS011;7702;51.046;5.184;2022-07-29T16:10:33;2.87;;;2.13;;
15202;SDS011;7702;51.046;5.184;2022-07-29T16:12:58;3.03;;;2.00;;
15202;SDS011;7702;51.046;5.184;2022-07-29T16:15:24;2.70;;;1.83;;